Georginio Van Dijk

Chefscout - Feyenoord
4 Apr 2027
Sonntag
Verarbeitung

Persönlichkeit

Anpassungsfähigkeit (19) Ehrgeiz (2) Kontroverse (8) Loyalität (3) Druck (15) Professionalität (7) Fairness (20) Temperament (8)

Profil

Trainerstil Demokratisch
Lizenz Kontinentale A
Entschlossenheit 6
Menschenführung 15
Motivation 16
Disziplin 12
Arbeitszufriedenheit
89%
Ermüdung
0%
Rolle Chefscout
Gehalt 83.7K p/W
Vertrag 14.03.2029

Leistung

Verhalten Gut
Trainingseffektivität
58%
Spielerentwicklung
45%
Verletzungsprävention
75%
Taktische Umsetzung
60%

Letzte Ereignisse

Spieler begutachtet jetzt
Nahm an einer Scouting-Besprechung teil jetzt
Empfahl ein Transferziel jetzt
Spieler begutachtet jetzt
Spieler begutachtet jetzt
Spieler begutachtet jetzt
Spieler begutachtet 7T her
Spieler begutachtet 7T her

Aktuell beobachtet

212
Spieler Verein Status Fähigkeit Vertrauen Beobachtet Zuletzt beobachtet Letzte Stimme
Daniel Muñoz Racing Genk Aktiv 148 / 148 40% 15 03.04.2027 -
Nacer Tielemans Mouscron Aktiv 130 / 133 40% 5 02.04.2027 -
Lukas Klostermann RB Leipzig Aktiv 136 / 134 40% 1 02.04.2027 -
Amadou Haïdara RC Lens Aktiv 141 / 136 40% 1 02.04.2027 -
Ollie Scarles West Ham United Aktiv 128 / 138 40% 3 01.04.2027 -
Youssef Al Bloushi Al Shabab Aktiv 140 / 139 40% 2 01.04.2027 -
Marcus Holmgren Pedersen Olympiacos Aktiv 140 / 131 40% 1 01.04.2027 -
Ngal'Ayel Mukau LOSC Lille Aktiv 137 / 144 40% 1 31.03.2027 -
Thierry Rendall Correia Venezia Aktiv 142 / 138 40% 2 30.03.2027 -
Nordi Mukiele Sunderland Aktiv 146 / 142 40% 1 30.03.2027 -
Sebastián Cáceres Club America Aktiv 137 / 137 40% 2 29.03.2027 -
Héctor Fort Real Sociedad Aktiv 134 / 138 40% 1 29.03.2027 -
Sidny Lopes Cabral Trabzonspor Aktiv 133 / 126 40% 1 29.03.2027 -
Orkun Kökçü Besiktas Aktiv 146 / 155 40% 2 28.03.2027 -
Kevin Álvarez Club America Aktiv 138 / 136 40% 3 28.03.2027 -
Antonino Gallo Lecce Aktiv 136 / 137 40% 1 28.03.2027 -
Alexandre Penetra AZ Aktiv 137 / 136 40% 1 27.03.2027 -
Rúben Neves Al-Hilal Aktiv 153 / 157 40% 5 26.03.2027 -
Leonardo Lelo Braga Aktiv 135 / 132 40% 2 26.03.2027 -
Ander Guevara Alavés Aktiv 135 / 136 40% 1 26.03.2027 -
Anel Ahmedhodžić Burnley Aktiv 134 / 135 40% 2 25.03.2027 -
Vinicius Tobias Shakhtar Aktiv 135 / 131 40% 1 25.03.2027 -
Pedro Henrique Shakhtar Aktiv 138 / 127 40% 1 25.03.2027 -
Jesús Vázquez Valencia Aktiv 137 / 132 40% 8 24.03.2027 -
Federico Pereira Toluca Aktiv 139 / 136 40% 11 24.03.2027 -
Gustavo Puerta Racing Santander Aktiv 139 / 139 40% 3 24.03.2027 -
Morten Frendrup Genoa Aktiv 140 / 139 40% 1 24.03.2027 -
Manor Solomon West Ham United Aktiv 138 / 139 40% 1 24.03.2027 -
Jonathan Ikoné Paris FC Aktiv 136 / 130 40% 1 24.03.2027 -
Mouctar Diakhaby Valencia Aktiv 139 / 140 40% 3 22.03.2027 -
Lamine Camara Monaco Aktiv 137 / 145 40% 1 22.03.2027 -
Ramiz Zerrouki Twente Aktiv 134 / 129 40% 9 19.03.2027 -
Igor Zubeldia Real Sociedad Aktiv 144 / 146 40% 1 19.03.2027 -
Anthony Rouault Stade Rennais Aktiv 137 / 134 40% 1 19.03.2027 -
Ernest Nuamah Olympique Lyonnais Aktiv 136 / 133 40% 4 17.03.2027 -
Ilias Akhomach Villarreal Aktiv 142 / 146 40% 4 17.03.2027 -
Stephen Eustáquio Swansea City Aktiv 135 / 131 40% 3 17.03.2027 -
Joaquin Seys Club Brugge Aktiv 126 / 127 40% 1 17.03.2027 -
Marlon Gomes Shakhtar Aktiv 132 / 142 40% 1 17.03.2027 -
Gustavo Mantuan Zenit Aktiv 135 / 128 40% 3 16.03.2027 -
Urko González Espanyol Aktiv 136 / 139 40% 1 16.03.2027 -
Luca Orellano Monterrey Aktiv 136 / 134 40% 2 15.03.2027 -
Alejandro Zendejas Club America Aktiv 141 / 136 40% 2 14.03.2027 -
Sondre Ørjasæter Twente Aktiv 132 / 132 40% 1 14.03.2027 -
Romain Del Castillo Stade Brestois Aktiv 139 / 139 40% 1 14.03.2027 -
Lukáš Provod Slavia Prague Aktiv 141 / 145 40% 7 12.03.2027 -
Andrea Colpani Monza Aktiv 140 / 133 40% 1 12.03.2027 -
Pablo Maffeo Olympiacos Aktiv 142 / 134 40% 6 10.03.2027 -
Ben Chilwell RC Strasbourg Aktiv 142 / 143 40% 3 08.03.2027 -
Shea Charles Southampton Aktiv 133 / 138 40% 2 07.03.2027 -
Nadir Zortea Bologna Aktiv 137 / 140 40% 1 07.03.2027 -
Leif Davis Ipswich Town Aktiv 137 / 139 40% 3 05.03.2027 -
Jacob Greaves Ipswich Town Aktiv 135 / 130 40% 1 05.03.2027 -
Jonathan Arteaga Veracruz Aktiv 114 / 120 40% 1 04.03.2027 -
Alexis Vega Toluca Aktiv 146 / 149 40% 23 03.03.2027 -
Orbelín Pineda Monterrey Aktiv 140 / 135 40% 3 03.03.2027 -
Félix Lemaréchal Club Brugge Aktiv 136 / 138 40% 2 03.03.2027 -
Abdelkabir Abqar Getafe Aktiv 138 / 136 40% 1 03.03.2027 -
Emam Ashour Al Ahly Aktiv 137 / 131 40% 1 03.03.2027 -
Erik Lira Cruz Azul Aktiv 136 / 136 40% 2 01.03.2027 -
Facundo Torres Shakhtar Aktiv 134 / 130 40% 4 28.02.2027 -
David Mella Deportivo La Coruña Aktiv 132 / 134 40% 1 28.02.2027 -
Michy Fellaini KV Oostende Aktiv 134 / 133 40% 11 27.02.2027 -
Efraín Álvarez Guadalajara Aktiv 128 / 131 40% 4 26.02.2027 -
Jon Karrikaburu Burgos Aktiv 131 / 130 40% 3 26.02.2027 -
Danylo Sikan Anderlecht Aktiv 130 / 125 40% 4 26.02.2027 -
Davide Calabria Panathinaikos Aktiv 137 / 133 40% 1 26.02.2027 -
Sébastien Durand Tours Aktiv 138 / 138 40% 4 22.02.2027 -
Mattéo Guendouzi Fenerbahce Aktiv 150 / 153 40% 3 22.02.2027 -
Jesús Angulo Tigres Aktiv 134 / 138 40% 2 22.02.2027 -
Richard Ledezma Guadalajara Aktiv 139 / 132 40% 2 17.02.2027 -
Guille Rosas Gijón Aktiv 138 / 136 40% 2 12.02.2027 -
Petar Stanić Ludogorets Aktiv 138 / 127 40% 3 12.02.2027 -
Manu Morlanes Mallorca Aktiv 136 / 139 40% 1 12.02.2027 -
Andrés Martín Racing Santander Aktiv 134 / 133 40% 1 12.02.2027 -
Tyrell Malacia Leicester City Aktiv 137 / 137 40% 1 09.02.2027 -
Malcom Al Jazira Aktiv 149 / 149 40% 4 07.02.2027 -
Lucas Boyé Alavés Aktiv 139 / 142 40% 6 06.02.2027 -
Willer Ditta Cruz Azul Aktiv 137 / 136 40% 1 04.02.2027 -
Che Adams Torino Aktiv 138 / 140 40% 9 03.02.2027 -
Afimico Pululu Al-Hazem Aktiv 126 / 130 40% 3 30.01.2027 -
Itumeleng Tau Ajax Cape Town Aktiv 119 / 117 40% 4 30.01.2027 -
Fernand Gouré Westerlo Aktiv 110 / 107 40% 1 30.01.2027 -
Mahmoud Al Bloushi Al Shabab Aktiv 154 / 152 40% 9 29.01.2027 -
Yousef Salech Cardiff City Aktiv 124 / 124 40% 4 29.01.2027 -
Juan Carlos Arana Racing Santander Aktiv 130 / 122 40% 2 29.01.2027 -
Luciano Gondou CSKA Moscow Aktiv 130 / 126 40% 2 28.01.2027 -
Mexx Meerdink AZ Aktiv 127 / 133 40% 2 28.01.2027 -
Myron van Brederode KV Mechelen Aktiv 120 / 128 40% 1 26.01.2027 -
Rumarn Burrell Queens Park Rangers Aktiv 125 / 126 40% 1 25.01.2027 -
Evidence Makgopa Orlando Pirates Aktiv 112 / 109 40% 1 21.01.2027 -
Josh Coburn Millwall Aktiv 117 / 114 40% 1 21.01.2027 -
Florián Monzón Atlas Aktiv 125 / 124 40% 3 20.01.2027 -
Camilo Durán Bloemfontein Celtic Aktiv 123 / 119 40% 2 20.01.2027 -
Percy Erasmus SuperSport United Aktiv 124 / 120 40% 1 20.01.2027 -
Jens Petter Hauge Bodo/Glimt Aktiv 138 / 142 40% 1 17.01.2027 -
Dylan Vente Heerenveen Aktiv 113 / 119 40% 1 16.01.2027 -
Théo Hernández Al-Hilal Aktiv 156 / 148 40% 1 16.01.2027 -
Antonio Blanco Alavés Aktiv 143 / 139 40% 1 16.01.2027 -
Kees Smit AZ Abgelehnt 142 / 140 40% 2 15.01.2027 Mehr Infos nötig
Álex Valle Como Aktiv 140 / 136 40% 1 15.01.2027 -
Rafiu Durosinmi Racing Genk Aktiv 134 / 126 40% 1 13.01.2027 -
Rodrigo Garro Corinthians Aktiv 138 / 138 40% 1 11.01.2027 -
Eduard Spertsyan Al-Ahli Aktiv 141 / 135 40% 1 11.01.2027 -
Ryotaro Araki Sint-Truiden Aktiv 115 / 120 40% 2 10.01.2027 -
Timothy Kompany Mouscron Aktiv 131 / 132 40% 1 10.01.2027 -
José Manuel López Palmeiras Aktiv 140 / 136 40% 2 09.01.2027 -
Chukwubuikem Ikwuemesi OH Leuven Aktiv 122 / 117 40% 1 08.01.2027 -
Tom Cannon Sheffield United Aktiv 126 / 128 40% 1 08.01.2027 -
Gonzalo Plata Dinamo Moscow Aktiv 134 / 137 40% 2 04.01.2027 -
Jorge Pascual Granada Aktiv 137 / 137 40% 1 03.01.2027 -
Morgan Whittaker Middlesbrough Aktiv 133 / 132 40% 1 02.01.2027 -
Mao Hosoya Corinthians Verhandlung 134 / 135 67% 1 01.01.2027 Befürworten
Ibrahim Cissoko Zwolle Verloren 113 / 121 86% 1 01.01.2027 -
Jakob Napoleon Romsaas Charleroi Aktiv 117 / 126 40% 1 01.01.2027 -
Adriano Bertaccini Anderlecht Aktiv 126 / 125 40% 1 01.01.2027 -
Diego López Valencia Aktiv 141 / 134 40% 2 31.12.2026 -
Taiwo Awoniyi Coventry City Aktiv 140 / 136 40% 2 31.12.2026 -
Youssef En-Nesyri Al-Ittihad Aktiv 139 / 142 40% 15 30.12.2026 -
Akor Adams Venezia Aktiv 143 / 142 40% 5 30.12.2026 -
Aitor Ruibal Betis Aktiv 141 / 135 40% 4 29.12.2026 -
Gorka Guruzeta Athletic Bilbao Aktiv 142 / 143 40% 1 29.12.2026 -
Matteo Cancellieri Lazio Aktiv 139 / 144 40% 5 27.12.2026 -
Soufiane Rahimi Al Ain Aktiv 141 / 141 40% 9 27.12.2026 -
Kaio Jorge Cruzeiro Aktiv 138 / 138 40% 3 27.12.2026 -
Matheus Pereira Cruzeiro Aktiv 143 / 139 40% 1 27.12.2026 -
Randal Kolo Muani Juventus Aktiv 145 / 142 40% 4 25.12.2026 -
Brian Brobbey Sunderland Aktiv 137 / 141 40% 2 25.12.2026 -
Brais Méndez Columbus Crew Aktiv 150 / 144 40% 3 22.12.2026 -
Julián Quiñones Al-Qadisiyah Aktiv 146 / 151 40% 11 22.12.2026 -
Carlos Espí Real Madrid Aktiv 121 / 125 40% 1 22.12.2026 -
Esequiel Barco Spartak Moscow Aktiv 141 / 140 40% 1 22.12.2026 -
Adama Traoré Deportivo La Coruña Aktiv 141 / 136 40% 1 21.12.2026 -
Valentín Barco Chelsea Aktiv 142 / 142 40% 1 19.12.2026 -
Jason Januzaj Mouscron Aktiv 145 / 147 40% 11 16.12.2026 -
Santiago Mina VfL Wolfsburg Aktiv 140 / 149 40% 8 16.12.2026 -
Kingsley Coman Al-Nassr Aktiv 151 / 154 40% 2 15.12.2026 -
Francesco Pio Esposito Inter Aktiv 142 / 143 40% 1 15.12.2026 -
Vitor Roque Palmeiras Aktiv 140 / 143 40% 4 14.12.2026 -
Pedro Flamengo Aktiv 143 / 140 40% 1 14.12.2026 -
Ivan Toney Al-Ahli Aktiv 153 / 152 40% 11 11.12.2026 -
Jones El-Abdellaoui Celta Aktiv 128 / 136 40% 1 11.12.2026 -
Samú Al-Nassr Aktiv 142 / 141 40% 2 10.12.2026 -
Iván Martín Racing Club Aktiv 147 / 146 40% 2 10.12.2026 -
Breel Embolo Brighton Aktiv 137 / 135 40% 2 07.12.2026 -
Jean-Luc Morin Tours Aktiv 143 / 140 40% 6 06.12.2026 -
Petar Musa FC Dallas Aktiv 139 / 135 40% 3 05.12.2026 -
Dries Fellaini KV Oostende Aktiv 123 / 122 40% 1 05.12.2026 -
Nikola Krstović Atalanta Aktiv 143 / 139 40% 8 02.12.2026 -
Yuri Alberto Corinthians Aktiv 140 / 140 40% 2 02.12.2026 -
Dodi Lukébakio Benfica Aktiv 143 / 139 40% 7 01.12.2026 -
Boulaye Dia Lazio Aktiv 137 / 141 40% 4 01.12.2026 -
Pedrinho Shakhtar Aktiv 140 / 142 40% 1 29.11.2026 -
Thiago Almada River Plate Aktiv 149 / 150 40% 3 27.11.2026 -
Matías Fernández-Pardo LOSC Lille Aktiv 136 / 144 40% 3 24.11.2026 -
Leon Grgić Red Bull Salzburg Aktiv 119 / 132 40% 1 23.11.2026 -
Jens Odgaard Bologna Aktiv 136 / 139 40% 2 22.11.2026 -
Alexander Sørloth Atlético Madrid Aktiv 148 / 151 40% 1 22.11.2026 -
Artem Dovbyk AS Roma Aktiv 145 / 142 40% 10 18.11.2026 -
Ritsu Doan Gamba Osaka Aktiv 150 / 144 40% 1 18.11.2026 -
Cesar Corona Veracruz Aktiv 137 / 137 40% 2 16.11.2026 -
Robert FC Copenhagen Aktiv 125 / 132 40% 1 16.11.2026 -
Jean Rodriguez Chamois Niortais Aktiv 147 / 145 40% 1 09.11.2026 -
Chris Rigg Sunderland Aktiv 129 / 136 40% 1 09.11.2026 -
Ciprian Coman Pandurii Aktiv 116 / 124 40% 1 03.11.2026 -
Santiago Giménez AC Milan Aktiv 147 / 147 40% 1 02.11.2026 -
Barış Alper Yılmaz Galatasaray Aktiv 151 / 143 40% 11 31.10.2026 -
Dom Ballard Leyton Orient Aktiv 117 / 122 40% 1 28.10.2026 -
Mateo Pellegrino Fiorentina Aktiv 139 / 141 40% 1 26.10.2026 -
Galeno Al-Ahli Aktiv 146 / 149 40% 1 25.10.2026 -
Ainsley Maitland-Niles Olympique Lyonnais Aktiv 140 / 136 40% 1 25.10.2026 -
Wilfried Singo Galatasaray Aktiv 143 / 138 40% 1 25.10.2026 -
Yoan Bonny Inter Aktiv 143 / 145 40% 4 18.10.2026 -
Jørgen Strand Larsen Crystal Palace Aktiv 144 / 141 40% 1 17.10.2026 -
Cundo Leicester City Aktiv 122 / 137 40% 1 15.10.2026 -
Agustín Palavecino Cruz Azul Aktiv 140 / 138 40% 1 15.10.2026 -
Roberto Alvarado Guadalajara Aktiv 138 / 143 40% 2 14.10.2026 -
Kirill Glebov CSKA Moscow Aktiv 124 / 132 40% 1 14.10.2026 -
Chris Lokesa Waasland-Beveren Aktiv 120 / 126 40% 1 11.10.2026 -
Rasmus Højlund Napoli Aktiv 150 / 148 40% 3 07.10.2026 -
Yoane Wissa Newcastle United Aktiv 142 / 144 40% 5 06.10.2026 -
Mihailo Ivanović Millwall Aktiv 119 / 134 40% 1 05.10.2026 -
Steven Bergwijn Al-Ittihad Aktiv 145 / 149 40% 5 03.10.2026 -
Oumar Camara Vitoria Guimaraes Aktiv 115 / 128 40% 1 29.09.2026 -
Eliezer Mayenda Stade Rennais Aktiv 129 / 134 40% 1 29.09.2026 -
José Paradela Cruz Azul Aktiv 138 / 134 40% 1 27.09.2026 -
Rocco Vata Watford Aktiv 123 / 123 40% 1 25.09.2026 -
Jeff Ekhator Juventus Aktiv 128 / 133 40% 1 23.09.2026 -
Rasmus Kristensen FC Midtjylland Aktiv 143 / 132 40% 1 23.09.2026 -
Alexey Miranchuk Newcastle United Aktiv 143 / 136 40% 3 19.09.2026 -
Roberto Fernández Braga Aktiv 142 / 134 40% 1 17.09.2026 -
Alexey Batrakov Galatasaray Aktiv 134 / 138 40% 3 16.09.2026 -
Jan Virgili Club Brugge Aktiv 130 / 134 40% 1 14.09.2026 -
Julio Soler Bournemouth Aktiv 129 / 135 40% 1 11.09.2026 -
Diego Gómez Brighton Aktiv 145 / 143 40% 1 11.09.2026 -
Cheick Doucouré Crystal Palace Aktiv 144 / 143 40% 1 09.09.2026 -
António Silva Bournemouth Aktiv 143 / 144 40% 1 09.09.2026 -
Elías Báez Atlanta United FC Aktiv 121 / 128 40% 1 09.09.2026 -
Adnan Courtois KV Oostende Aktiv 119 / 137 40% 1 06.09.2026 -
Rayan Bournemouth Aktiv 134 / 142 40% 2 05.09.2026 -
Kerem Aktürkoğlu Fenerbahce Aktiv 134 / 142 40% 1 03.09.2026 -
Mateus Mané Manchester United Aktiv 125 / 139 40% 1 01.09.2026 -
Brennan Johnson Everton Aktiv 143 / 147 40% 2 31.08.2026 -
Will Lankshear Middlesbrough Aktiv 120 / 126 40% 1 31.08.2026 -
Igor Jesus Nottingham Forest Aktiv 143 / 138 40% 1 31.08.2026 -
Leo Castledine Middlesbrough Aktiv 124 / 131 40% 1 28.08.2026 -
Stefanos Tzimas Brighton Aktiv 128 / 137 40% 1 28.08.2026 -
Luis Suárez Sporting CP Aktiv 153 / 151 40% 1 23.08.2026 -
Ayoub Oufkir AZ Aktiv 129 / 128 40% 1 20.08.2026 -
Kauã Elias Shakhtar Aktiv 128 / 135 40% 1 20.08.2026 -
Xavier Biscayzacú Defensor Sporting Aktiv 121 / 124 40% 1 17.08.2026 -
Carlos Moreno Pachuca Aktiv 127 / 126 40% 1 01.08.2026 -